Time,TemperatureF,DewpointF,PressureIn,WindDirection,WindDirectionDegrees,WindSpeedMPH,WindSpeedGustMPH,Humidity,HourlyPrecipIn,Conditions,Clouds,dailyrainin,SoftwareType,DateUTC
2013-11-11 00:00:00,33.2,30.0,30.23,West,281,0.0,0.0,88,0.00,,---,0.00,VWS V13.01,2013-11-11 05:00:00,
2013-11-11 00:01:00,33.1,29.9,30.22,WNW,282,0.0,0.0,88,0.00,,---,0.00,VWS V13.01,2013-11-11 05:01:00,
2013-11-11 00:02:00,33.0,30.1,30.23,WNW,282,0.0,0.0,89,0.00,,---,0.00,VWS V13.01,2013-11-11 05:02:00,
2013-11-11 00:03:00,32.9,30.0,30.23,WNW,282,0.0,0.0,89,0.00,,---,0.00,VWS V13.01,2013-11-11 05:03:00,
2013-11-11 00:05:00,32.8,29.9,30.23,WNW,282,0.0,0.0,89,0.00,,---,0.00,VWS V13.01,2013-11-11 05:05:00,
2013-11-11 00:10:00,32.7,30.4,30.22,WNW,282,0.0,0.0,91,0.00,,---,0.00,VWS V13.01,2013-11-11 05:10:00,
2013-11-11 00:15:00,32.8,30.5,30.22,WNW,282,0.0,0.0,91,0.00,,---,0.00,VWS V13.01,2013-11-11 05:15:00,
2013-11-11 00:20:00,32.8,30.5,30.22,West,281,0.0,0.0,91,0.00,,---,0.00,VWS V13.01,2013-11-11 05:20:00,
2013-11-11 00:25:00,32.8,30.5,30.23,WNW,282,0.0,0.0,91,0.00,,---,0.00,VWS V13.01,2013-11-11 05:25:00,
2013-11-11 00:30:00,32.6,30.3,30.23,West,281,0.0,0.0,91,0.00,,---,0.00,VWS V13.01,2013-11-11 05:30:00,
2013-11-11 00:35:00,32.6,30.5,30.23,West,281,0.0,0.0,92,0.00,,---,0.00,VWS V13.01,2013-11-11 05:35:00,
2013-11-11 00:40:00,32.5,30.4,30.23,WNW,282,0.0,0.0,92,0.00,,---,0.00,VWS V13.01,2013-11-11 05:40:00,
2013-11-11 00:45:00,32.4,30.3,30.23,West,281,0.0,0.0,92,0.00,,---,0.00,VWS V13.01,2013-11-11 05:45:00,
2013-11-11 00:50:00,32.3,30.0,30.23,West,281,0.0,0.0,91,0.00,,---,0.00,VWS V13.01,2013-11-11 05:50:00,
2013-11-11 00:55:00,32.1,29.8,30.23,WNW,282,0.0,0.0,91,0.00,,---,0.00,VWS V13.01,2013-11-11 05:55:00,
2013-11-11 01:01:00,32.0,29.7,30.22,West,281,0.0,0.0,91,0.00,,---,0.00,VWS V13.01,2013-11-11 06:01:00,
2013-11-11 01:06:00,31.8,29.5,30.23,West,281,0.0,1.0,91,0.00,,---,0.00,VWS V13.01,2013-11-11 06:06:00,
2013-11-11 01:11:00,31.4,29.1,30.23,WNW,282,0.0,1.0,91,0.00,,---,0.00,VWS V13.01,2013-11-11 06:11:00,
2013-11-11 01:16:00,30.9,28.3,30.22,WNW,282,0.0,1.0,90,0.00,,---,0.00,VWS V13.01,2013-11-11 06:16:00,
2013-11-11 01:21:00,30.3,27.7,30.22,WNW,282,0.0,1.0,90,0.00,,---,0.00,VWS V13.01,2013-11-11 06:21:00,
2013-11-11 01:26:00,30.0,27.7,30.23,WNW,282,0.0,1.0,91,0.00,,---,0.00,VWS V13.01,2013-11-11 06:26:00,
2013-11-11 01:31:00,29.9,27.6,30.23,WNW,282,0.0,0.0,91,0.00,,---,0.00,VWS V13.01,2013-11-11 06:31:00,
2013-11-11 01:36:00,29.7,27.7,30.22,WNW,282,0.0,0.0,92,0.00,,---,0.00,VWS V13.01,2013-11-11 06:36:00,
2013-11-11 01:41:00,29.5,27.5,30.22,WNW,282,0.0,2.0,92,0.00,,---,0.00,VWS V13.01,2013-11-11 06:41:00,
2013-11-11 01:46:00,29.2,27.2,30.22,WNW,282,0.0,2.0,92,0.00,,---,0.00,VWS V13.01,2013-11-11 06:46:00,
2013-11-11 01:51:00,28.9,27.1,30.23,WNW,282,0.0,2.0,93,0.00,,---,0.00,VWS V13.01,2013-11-11 06:51:00,
2013-11-11 01:57:00,28.6,26.6,30.22,WNW,282,0.0,2.0,92,0.00,,---,0.00,VWS V13.01,2013-11-11 06:57:00,
2013-11-11 02:02:00,28.5,26.7,30.22,West,281,0.0,0.0,93,0.00,,---,0.00,VWS V13.01,2013-11-11 07:02:00,
2013-11-11 02:07:00,28.5,26.7,30.22,West,281,0.0,0.0,93,0.00,,---,0.00,VWS V13.01,2013-11-11 07:07:00,
2013-11-11 02:12:00,28.2,26.4,30.22,WNW,282,0.0,0.0,93,0.00,,---,0.00,VWS V13.01,2013-11-11 07:12:00,
2013-11-11 02:17:00,28.1,26.3,30.23,WNW,282,0.0,0.0,93,0.00,,---,0.00,VWS V13.01,2013-11-11 07:17:00,
2013-11-11 02:22:00,28.3,26.8,30.23,West,281,0.0,0.0,94,0.00,,---,0.00,VWS V13.01,2013-11-11 07:22:00,
2013-11-11 02:27:00,28.5,27.0,30.22,WNW,282,0.0,0.0,94,0.00,,---,0.00,VWS V13.01,2013-11-11 07:27:00,
2013-11-11 02:32:00,28.3,26.8,30.22,WNW,282,0.0,0.0,94,0.00,,---,0.00,VWS V13.01,2013-11-11 07:32:00,
2013-11-11 02:37:00,28.2,26.7,30.22,West,281,0.0,2.0,94,0.00,,---,0.00,VWS V13.01,2013-11-11 07:37:00,
2013-11-11 02:42:00,28.3,26.8,30.22,WNW,282,0.0,2.0,94,0.00,,---,0.00,VWS V13.01,2013-11-11 07:42:00,
2013-11-11 02:47:00,28.5,27.2,30.22,WNW,282,0.0,2.0,95,0.00,,---,0.00,VWS V13.01,2013-11-11 07:47:00,
2013-11-11 02:52:00,28.8,27.5,30.23,WNW,282,0.0,2.0,95,0.00,,---,0.00,VWS V13.01,2013-11-11 07:52:00,
2013-11-11 02:58:00,28.9,27.6,30.23,WNW,282,0.0,2.0,95,0.00,,---,0.00,VWS V13.01,2013-11-11 07:58:00,
2013-11-11 03:03:00,29.2,28.0,30.23,WNW,282,0.0,0.0,95,0.00,,---,0.00,VWS V13.01,2013-11-11 08:03:00,
2013-11-11 03:08:00,29.3,28.0,30.23,WNW,282,0.0,0.0,95,0.00,,---,0.00,VWS V13.01,2013-11-11 08:08:00,
2013-11-11 03:13:00,29.3,28.0,30.22,West,281,0.0,1.0,95,0.00,,---,0.00,VWS V13.01,2013-11-11 08:13:00,
2013-11-11 03:18:00,29.4,28.1,30.22,West,281,0.0,1.0,95,0.00,,---,0.00,VWS V13.01,2013-11-11 08:18:00,
2013-11-11 03:23:00,29.5,28.2,30.22,WNW,282,0.0,1.0,95,0.00,,---,0.00,VWS V13.01,2013-11-11 08:23:00,
2013-11-11 03:28:00,29.7,28.7,30.22,West,281,0.0,1.0,96,0.00,,---,0.00,VWS V13.01,2013-11-11 08:28:00,
2013-11-11 03:33:00,29.7,28.7,30.22,WNW,282,0.0,0.0,96,0.00,,---,0.00,VWS V13.01,2013-11-11 08:33:00,
2013-11-11 03:38:00,29.7,28.7,30.22,West,281,0.0,0.0,96,0.00,,---,0.00,VWS V13.01,2013-11-11 08:38:00,
2013-11-11 03:43:00,29.7,28.7,30.22,West,281,0.0,0.0,96,0.00,,---,0.00,VWS V13.01,2013-11-11 08:43:00,
2013-11-11 03:48:00,29.9,28.9,30.22,WNW,282,0.0,2.0,96,0.00,,---,0.00,VWS V13.01,2013-11-11 08:48:00,
2013-11-11 03:53:00,30.3,29.3,30.22,West,281,0.0,2.0,96,0.00,,---,0.00,VWS V13.01,2013-11-11 08:53:00,
2013-11-11 03:58:00,30.5,29.5,30.22,West,281,0.0,2.0,96,0.00,,---,0.00,VWS V13.01,2013-11-11 08:58:00,
2013-11-11 04:04:00,30.5,29.5,30.22,WNW,282,0.0,0.0,96,0.00,,---,0.00,VWS V13.01,2013-11-11 09:04:00,
2013-11-11 04:09:00,30.5,29.5,30.21,WNW,282,0.0,0.0,96,0.00,,---,0.00,VWS V13.01,2013-11-11 09:09:00,
2013-11-11 04:14:00,30.3,29.3,30.21,WNW,282,1.0,2.0,96,0.00,,---,0.00,VWS V13.01,2013-11-11 09:14:00,
2013-11-11 04:19:00,30.0,28.7,30.22,WNW,282,1.0,2.0,95,0.00,,---,0.00,VWS V13.01,2013-11-11 09:19:00,
2013-11-11 04:24:00,30.1,28.8,30.21,WNW,282,0.0,2.0,95,0.00,,---,0.00,VWS V13.01,2013-11-11 09:24:00,
2013-11-11 04:29:00,30.0,28.7,30.22,WNW,282,0.0,2.0,95,0.00,,---,0.00,VWS V13.01,2013-11-11 09:29:00,
2013-11-11 04:34:00,30.0,29.0,30.22,WNW,282,0.0,0.0,96,0.00,,---,0.00,VWS V13.01,2013-11-11 09:34:00,
2013-11-11 04:39:00,30.1,29.1,30.22,WNW,282,0.0,0.0,96,0.00,,---,0.00,VWS V13.01,2013-11-11 09:39:00,
2013-11-11 04:44:00,30.3,29.3,30.22,West,281,0.0,0.0,96,0.00,,---,0.00,VWS V13.01,2013-11-11 09:44:00,
2013-11-11 04:49:00,30.6,29.6,30.22,WNW,282,0.0,0.0,96,0.00,,---,0.00,VWS V13.01,2013-11-11 09:49:00,
2013-11-11 04:54:00,30.7,29.7,30.22,West,281,0.0,0.0,96,0.00,,---,0.00,VWS V13.01,2013-11-11 09:54:00,
2013-11-11 04:59:00,30.8,29.8,30.21,WNW,282,0.0,0.0,96,0.00,,---,0.00,VWS V13.01,2013-11-11 09:59:00,
2013-11-11 05:04:00,30.8,29.8,30.22,WNW,282,0.0,0.0,96,0.00,,---,0.00,VWS V13.01,2013-11-11 10:04:00,
2013-11-11 05:09:00,30.9,29.9,30.22,WNW,282,0.0,0.0,96,0.00,,---,0.00,VWS V13.01,2013-11-11 10:09:00,
2013-11-11 05:14:00,31.0,30.0,30.22,WNW,282,0.0,0.0,96,0.00,,---,0.00,VWS V13.01,2013-11-11 10:14:00,
2013-11-11 05:19:00,31.0,30.0,30.23,West,281,0.0,0.0,96,0.00,,---,0.00,VWS V13.01,2013-11-11 10:19:00,
2013-11-11 05:24:00,31.0,30.0,30.22,WNW,282,2.0,2.0,96,0.00,,---,0.00,VWS V13.01,2013-11-11 10:24:00,
2013-11-11 05:29:00,31.0,30.0,30.21,West,281,0.0,2.0,96,0.00,,---,0.00,VWS V13.01,2013-11-11 10:29:00,
2013-11-11 05:35:00,31.0,30.0,30.21,WNW,282,0.0,1.0,96,0.00,,---,0.00,VWS V13.01,2013-11-11 10:35:00,
2013-11-11 05:40:00,31.2,30.2,30.21,WNW,282,0.0,1.0,96,0.00,,---,0.00,VWS V13.01,2013-11-11 10:40:00,
2013-11-11 05:45:00,31.2,30.2,30.21,West,281,0.0,1.0,96,0.00,,---,0.00,VWS V13.01,2013-11-11 10:45:00,
2013-11-11 05:50:00,31.4,30.4,30.21,WNW,282,2.0,2.0,96,0.00,,---,0.00,VWS V13.01,2013-11-11 10:50:00,
2013-11-11 05:55:00,31.5,30.5,30.22,WNW,282,0.0,2.0,96,0.00,,---,0.00,VWS V13.01,2013-11-11 10:55:00,
2013-11-11 06:00:00,31.7,30.7,30.21,WNW,282,1.0,2.0,96,0.00,,---,0.00,VWS V13.01,2013-11-11 11:00:00,
2013-11-11 06:05:00,31.9,30.9,30.21,WNW,282,0.0,2.0,96,0.00,,---,0.00,VWS V13.01,2013-11-11 11:05:00,
2013-11-11 06:10:00,32.1,31.1,30.20,WNW,282,0.0,2.0,96,0.00,,---,0.00,VWS V13.01,2013-11-11 11:10:00,
2013-11-11 06:15:00,32.5,31.5,30.20,West,281,1.0,2.0,96,0.00,,---,0.00,VWS V13.01,2013-11-11 11:15:00,
2013-11-11 06:20:00,33.2,32.2,30.20,West,281,1.0,5.0,96,0.00,,---,0.00,VWS V13.01,2013-11-11 11:20:00,
2013-11-11 06:25:00,33.5,32.5,30.21,West,281,1.0,5.0,96,0.00,,---,0.00,VWS V13.01,2013-11-11 11:25:00,
2013-11-11 06:31:00,33.7,32.4,30.21,West,281,2.0,4.0,95,0.00,,---,0.00,VWS V13.01,2013-11-11 11:31:00,
2013-11-11 06:36:00,34.0,32.2,30.21,West,281,1.0,6.0,93,0.00,,---,0.00,VWS V13.01,2013-11-11 11:36:00,
2013-11-11 06:41:00,34.4,32.0,30.20,West,279,2.0,7.0,91,0.00,,---,0.00,VWS V13.01,2013-11-11 11:41:00,
2013-11-11 06:46:00,34.4,31.8,30.20,West,279,2.0,7.0,90,0.00,,---,0.00,VWS V13.01,2013-11-11 11:46:00,
2013-11-11 06:51:00,34.4,31.8,30.20,West,278,6.0,7.0,90,0.00,,---,0.00,VWS V13.01,2013-11-11 11:51:00,
2013-11-11 06:56:00,34.5,31.6,30.21,West,277,4.0,7.0,89,0.00,,---,0.00,VWS V13.01,2013-11-11 11:56:00,
2013-11-11 07:01:00,34.5,31.6,30.21,West,278,4.0,8.0,89,0.00,,---,0.00,VWS V13.01,2013-11-11 12:01:00,
2013-11-11 07:06:00,34.4,31.5,30.22,West,277,2.0,8.0,89,0.00,,---,0.00,VWS V13.01,2013-11-11 12:06:00,
2013-11-11 07:11:00,34.4,31.5,30.22,West,278,2.0,8.0,89,0.00,,---,0.00,VWS V13.01,2013-11-11 12:11:00,
2013-11-11 07:16:00,34.4,31.5,30.21,West,277,7.0,8.0,89,0.00,,---,0.00,VWS V13.01,2013-11-11 12:16:00,
2013-11-11 07:21:00,34.4,31.5,30.21,West,277,3.0,8.0,89,0.00,,---,0.00,VWS V13.01,2013-11-11 12:21:00,
2013-11-11 07:26:00,34.6,31.4,30.20,West,277,5.0,8.0,88,0.00,,---,0.00,VWS V13.01,2013-11-11 12:26:00,
2013-11-11 07:31:00,34.6,31.4,30.20,West,277,2.0,5.0,88,0.00,,---,0.00,VWS V13.01,2013-11-11 12:31:00,
2013-11-11 07:36:00,34.4,31.2,30.20,West,277,0.0,5.0,88,0.00,,---,0.00,VWS V13.01,2013-11-11 12:36:00,
2013-11-11 07:41:00,34.4,31.2,30.20,West,277,0.0,5.0,88,0.00,,---,0.00,VWS V13.01,2013-11-11 12:41:00,
2013-11-11 07:47:00,34.1,30.9,30.20,West,277,0.0,5.0,88,0.00,,---,0.00,VWS V13.01,2013-11-11 12:47:00,
2013-11-11 07:52:00,34.0,30.8,30.21,West,277,0.0,5.0,88,0.00,,---,0.00,VWS V13.01,2013-11-11 12:52:00,
2013-11-11 07:57:00,34.0,31.1,30.20,West,277,0.0,5.0,89,0.00,,---,0.00,VWS V13.01,2013-11-11 12:57:00,
2013-11-11 08:02:00,34.1,31.2,30.20,West,277,0.0,0.0,89,0.00,,---,0.00,VWS V13.01,2013-11-11 13:02:00,
2013-11-11 08:07:00,34.2,31.3,30.20,West,277,0.0,0.0,89,0.00,,---,0.00,VWS V13.01,2013-11-11 13:07:00,
2013-11-11 08:12:00,34.4,31.5,30.21,West,277,2.0,5.0,89,0.00,,---,0.00,VWS V13.01,2013-11-11 13:12:00,
2013-11-11 08:17:00,35.0,31.5,30.20,West,277,2.0,7.0,87,0.00,,---,0.00,VWS V13.01,2013-11-11 13:17:00,
2013-11-11 08:22:00,35.2,31.7,30.20,West,277,0.0,7.0,87,0.00,,---,0.00,VWS V13.01,2013-11-11 13:22:00,
2013-11-11 08:28:00,35.5,31.7,30.20,West,277,1.0,8.0,86,0.00,,---,0.00,VWS V13.01,2013-11-11 13:28:00,
2013-11-11 08:33:00,35.7,31.6,30.20,West,277,2.0,9.0,85,0.00,,---,0.00,VWS V13.01,2013-11-11 13:33:00,
2013-11-11 08:38:00,35.8,31.7,30.20,West,269,2.0,9.0,85,0.00,,---,0.00,VWS V13.01,2013-11-11 13:38:00,
2013-11-11 08:43:00,35.9,31.5,30.19,West,269,2.0,9.0,84,0.00,,---,0.00,VWS V13.01,2013-11-11 13:43:00,
2013-11-11 08:48:00,36.1,31.7,30.19,West,275,5.0,9.0,84,0.00,,---,0.00,VWS V13.01,2013-11-11 13:48:00,
2013-11-11 08:53:00,36.2,31.5,30.19,West,265,5.0,9.0,83,0.00,,---,0.00,VWS V13.01,2013-11-11 13:53:00,
2013-11-11 08:58:00,36.3,31.6,30.18,West,265,6.0,11.0,83,0.00,,---,0.00,VWS V13.01,2013-11-11 13:58:00,
2013-11-11 09:03:00,36.4,31.7,30.18,West,278,5.0,11.0,83,0.00,,---,0.00,VWS V13.01,2013-11-11 14:03:00,
2013-11-11 09:08:00,36.5,31.5,30.18,WNW,294,4.0,12.0,82,0.00,,---,0.00,VWS V13.01,2013-11-11 14:08:00,
2013-11-11 09:13:00,36.6,31.6,30.18,West,267,7.0,12.0,82,0.00,,---,0.00,VWS V13.01,2013-11-11 14:13:00,
2013-11-11 09:18:00,36.7,31.7,30.18,West,271,9.0,13.0,82,0.00,,---,0.00,VWS V13.01,2013-11-11 14:18:00,
2013-11-11 09:23:00,36.8,31.8,30.18,West,271,7.0,15.0,82,0.00,,---,0.00,VWS V13.01,2013-11-11 14:23:00,
2013-11-11 09:28:00,36.8,31.8,30.17,West,267,6.0,15.0,82,0.00,,---,0.00,VWS V13.01,2013-11-11 14:28:00,
2013-11-11 09:33:00,36.9,31.9,30.17,West,267,6.0,12.0,82,0.00,,---,0.00,VWS V13.01,2013-11-11 14:33:00,
2013-11-11 09:38:00,37.1,31.8,30.17,West,267,7.0,12.0,81,0.00,,---,0.00,VWS V13.01,2013-11-11 14:38:00,
2013-11-11 09:43:00,37.2,31.9,30.17,West,275,12.0,13.0,81,0.00,,---,0.00,VWS V13.01,2013-11-11 14:43:00,
2013-11-11 09:48:00,37.4,31.8,30.17,WNW,288,8.0,19.0,80,0.00,,---,0.00,VWS V13.01,2013-11-11 14:48:00,
2013-11-11 09:53:00,37.5,31.9,30.17,West,271,8.0,19.0,80,0.00,,---,0.00,VWS V13.01,2013-11-11 14:53:00,
2013-11-11 09:59:00,37.7,31.8,30.15,West,267,11.0,21.0,79,0.00,,---,0.00,VWS V13.01,2013-11-11 14:59:00,
2013-11-11 10:04:00,37.9,32.0,30.15,West,265,9.0,18.0,79,0.00,,---,0.00,VWS V13.01,2013-11-11 15:04:00,
2013-11-11 10:09:00,38.2,32.3,30.16,West,272,13.0,18.0,79,0.00,,---,0.00,VWS V13.01,2013-11-11 15:09:00,
2013-11-11 10:14:00,38.3,32.4,30.16,West,272,9.0,18.0,79,0.00,,---,0.00,VWS V13.01,2013-11-11 15:14:00,
2013-11-11 10:19:00,38.4,32.2,30.16,West,264,10.0,19.0,78,0.00,,---,0.00,VWS V13.01,2013-11-11 15:19:00,
2013-11-11 10:24:00,38.5,32.2,30.16,West,273,7.0,19.0,78,0.00,,---,0.00,VWS V13.01,2013-11-11 15:24:00,
2013-11-11 10:29:00,38.7,32.8,30.15,West,260,6.0,19.0,79,0.00,,---,0.00,VWS V13.01,2013-11-11 15:29:00,
2013-11-11 10:34:00,38.9,32.3,30.15,West,259,4.0,18.0,77,0.00,,---,0.00,VWS V13.01,2013-11-11 15:34:00,
2013-11-11 10:39:00,39.2,32.9,30.15,West,263,9.0,20.0,78,0.00,,---,0.00,VWS V13.01,2013-11-11 15:39:00,
2013-11-11 10:44:00,39.4,32.5,30.14,West,262,12.0,22.0,76,0.00,,---,0.00,VWS V13.01,2013-11-11 15:44:00,
2013-11-11 10:49:00,39.7,32.8,30.14,West,262,10.0,22.0,76,0.00,,---,0.00,VWS V13.01,2013-11-11 15:49:00,
2013-11-11 10:54:00,40.0,33.1,30.13,West,273,16.0,22.0,76,0.00,,---,0.00,VWS V13.01,2013-11-11 15:54:00,
2013-11-11 10:59:00,40.2,32.9,30.12,West,275,15.0,22.0,75,0.00,,---,0.00,VWS V13.01,2013-11-11 15:59:00,
2013-11-11 11:04:00,40.2,32.6,30.11,WSW,257,7.0,20.0,74,0.00,,---,0.00,VWS V13.01,2013-11-11 16:04:00,
2013-11-11 11:10:00,40.5,32.5,30.10,West,273,18.0,20.0,73,0.00,,---,0.00,VWS V13.01,2013-11-11 16:10:00,
2013-11-11 11:15:00,40.7,32.7,30.09,WSW,244,11.0,21.0,73,0.00,,---,0.00,VWS V13.01,2013-11-11 16:15:00,
2013-11-11 11:20:00,41.2,33.5,30.09,West,259,11.0,22.0,74,0.00,,---,0.00,VWS V13.01,2013-11-11 16:20:00,
2013-11-11 11:25:00,41.5,33.2,30.08,West,280,15.0,22.0,72,0.00,,---,0.00,VWS V13.01,2013-11-11 16:25:00,
2013-11-11 11:30:00,41.7,32.7,30.08,West,264,14.0,14.0,70,0.00,,---,0.00,VWS V13.01,2013-11-11 16:30:00,
2013-11-11 11:35:00,41.8,33.5,30.08,West,272,19.0,27.0,72,0.00,,---,0.00,VWS V13.01,2013-11-11 16:35:00,
2013-11-11 11:40:00,42.0,32.9,30.08,West,272,9.0,27.0,70,0.00,,---,0.00,VWS V13.01,2013-11-11 16:40:00,
2013-11-11 11:45:00,42.2,32.4,30.08,WSW,246,9.0,27.0,68,0.00,,---,0.00,VWS V13.01,2013-11-11 16:45:00,
2013-11-11 11:50:00,42.1,32.3,30.08,West,262,12.0,27.0,68,0.00,,---,0.00,VWS V13.01,2013-11-11 16:50:00,
2013-11-11 11:55:00,41.8,32.0,30.08,WSW,257,12.0,27.0,68,0.00,,---,0.00,VWS V13.01,2013-11-11 16:55:00,
2013-11-11 12:00:00,41.7,32.3,30.08,West,262,9.0,13.0,69,0.00,,---,0.00,VWS V13.01,2013-11-11 17:00:00,
2013-11-11 12:05:00,41.7,31.6,30.07,West,275,12.0,21.0,67,0.00,,---,0.00,VWS V13.01,2013-11-11 17:05:00,
2013-11-11 12:10:00,41.8,32.0,30.07,SW,232,12.0,21.0,68,0.00,,---,0.00,VWS V13.01,2013-11-11 17:10:00,
2013-11-11 12:15:00,41.7,31.6,30.07,West,277,13.0,21.0,67,0.00,,---,0.00,VWS V13.01,2013-11-11 17:15:00,
2013-11-11 12:20:00,41.7,31.9,30.07,West,264,11.0,21.0,68,0.00,,---,0.00,VWS V13.01,2013-11-11 17:20:00,
2013-11-11 12:26:00,41.7,31.6,30.06,WSW,258,9.0,21.0,67,0.00,,---,0.00,VWS V13.01,2013-11-11 17:26:00,
2013-11-11 12:31:00,41.7,31.6,30.06,West,269,10.0,10.0,67,0.00,,---,0.00,VWS V13.01,2013-11-11 17:31:00,
2013-11-11 12:36:00,41.7,31.6,30.06,WNW,288,7.0,18.0,67,0.00,,---,0.00,VWS V13.01,2013-11-11 17:36:00,
2013-11-11 12:41:00,41.9,32.1,30.06,SSW,209,9.0,18.0,68,0.00,,---,0.00,VWS V13.01,2013-11-11 17:41:00,
2013-11-11 12:46:00,42.0,31.5,30.05,WSW,242,7.0,18.0,66,0.00,,---,0.00,VWS V13.01,2013-11-11 17:46:00,
2013-11-11 12:51:00,42.0,31.9,30.05,West,269,13.0,18.0,67,0.00,,---,0.00,VWS V13.01,2013-11-11 17:51:00,
2013-11-11 12:56:00,42.1,31.2,30.05,WSW,252,11.0,18.0,65,0.00,,---,0.00,VWS V13.01,2013-11-11 17:56:00,
2013-11-11 13:02:00,42.1,30.8,30.05,West,263,13.0,13.0,64,0.00,,---,0.00,VWS V13.01,2013-11-11 18:02:00,
2013-11-11 13:07:00,42.1,30.8,30.05,West,270,11.0,15.0,64,0.00,,---,0.00,VWS V13.01,2013-11-11 18:07:00,
2013-11-11 13:12:00,42.1,31.2,30.05,West,272,7.0,15.0,65,0.00,,---,0.00,VWS V13.01,2013-11-11 18:12:00,
2013-11-11 13:17:00,42.1,31.6,30.05,West,260,6.0,15.0,66,0.00,,---,0.00,VWS V13.01,2013-11-11 18:17:00,
2013-11-11 13:22:00,42.1,30.8,30.04,WSW,253,11.0,15.0,64,0.00,,---,0.00,VWS V13.01,2013-11-11 18:22:00,
2013-11-11 13:27:00,42.2,31.3,30.05,West,265,8.0,15.0,65,0.00,,---,0.00,VWS V13.01,2013-11-11 18:27:00,
2013-11-11 13:32:00,42.1,30.8,30.04,West,265,14.0,14.0,64,0.00,,---,0.00,VWS V13.01,2013-11-11 18:32:00,
2013-11-11 13:37:00,42.3,30.6,30.04,WSW,247,9.0,14.0,63,0.00,,---,0.00,VWS V13.01,2013-11-11 18:37:00,
2013-11-11 13:42:00,42.3,31.4,30.04,West,264,11.0,15.0,65,0.00,,---,0.00,VWS V13.01,2013-11-11 18:42:00,
2013-11-11 13:47:00,42.3,31.0,30.04,West,261,8.0,15.0,64,0.00,,---,0.00,VWS V13.01,2013-11-11 18:47:00,
2013-11-11 13:52:00,42.3,31.0,30.03,West,273,10.0,15.0,64,0.00,,---,0.00,VWS V13.01,2013-11-11 18:52:00,
2013-11-11 13:57:00,42.4,30.7,30.03,SW,233,11.0,15.0,63,0.00,,---,0.00,VWS V13.01,2013-11-11 18:57:00,
2013-11-11 14:03:00,42.5,30.8,30.03,West,267,10.0,14.0,63,0.00,,---,0.00,VWS V13.01,2013-11-11 19:03:00,
2013-11-11 14:08:00,42.5,30.8,30.03,West,261,9.0,16.0,63,0.00,,---,0.00,VWS V13.01,2013-11-11 19:08:00,
2013-11-11 14:13:00,42.5,31.2,30.02,West,267,9.0,16.0,64,0.00,,---,0.00,VWS V13.01,2013-11-11 19:13:00,
2013-11-11 14:18:00,42.5,31.6,30.02,WSW,257,11.0,16.0,65,0.00,,---,0.00,VWS V13.01,2013-11-11 19:18:00,
2013-11-11 14:23:00,42.5,30.8,30.02,West,265,12.0,16.0,63,0.00,,---,0.00,VWS V13.01,2013-11-11 19:23:00,
2013-11-11 14:28:00,42.5,30.8,30.02,West,268,7.0,16.0,63,0.00,,---,0.00,VWS V13.01,2013-11-11 19:28:00,
2013-11-11 14:33:00,42.5,30.4,30.02,West,275,8.0,15.0,62,0.00,,---,0.00,VWS V13.01,2013-11-11 19:33:00,
2013-11-11 14:38:00,42.5,31.2,30.02,West,259,9.0,16.0,64,0.00,,---,0.00,VWS V13.01,2013-11-11 19:38:00,
2013-11-11 14:43:00,42.5,31.2,30.02,West,267,9.0,16.0,64,0.00,,---,0.00,VWS V13.01,2013-11-11 19:43:00,
2013-11-11 14:49:00,42.5,30.8,30.02,WSW,250,12.0,20.0,63,0.00,,---,0.00,VWS V13.01,2013-11-11 19:49:00,
2013-11-11 14:54:00,42.6,30.9,30.02,WSW,254,13.0,20.0,63,0.00,,---,0.00,VWS V13.01,2013-11-11 19:54:00,
2013-11-11 14:59:00,42.7,31.4,30.02,WSW,256,12.0,20.0,64,0.00,,---,0.00,VWS V13.01,2013-11-11 19:59:00,
2013-11-11 15:04:00,42.7,31.8,30.02,West,259,8.0,12.0,65,0.00,,---,0.00,VWS V13.01,2013-11-11 20:04:00,
2013-11-11 15:09:00,42.7,30.6,30.01,West,259,7.0,14.0,62,0.00,,---,0.00,VWS V13.01,2013-11-11 20:09:00,
2013-11-11 15:14:00,42.8,31.1,30.01,West,268,9.0,14.0,63,0.00,,---,0.00,VWS V13.01,2013-11-11 20:14:00,
2013-11-11 15:19:00,42.8,31.1,30.01,West,265,7.0,14.0,63,0.00,,---,0.00,VWS V13.01,2013-11-11 20:19:00,
2013-11-11 15:24:00,42.8,31.5,30.01,West,260,9.0,14.0,64,0.00,,---,0.00,VWS V13.01,2013-11-11 20:24:00,
2013-11-11 15:29:00,42.9,31.2,30.01,WSW,243,12.0,16.0,63,0.00,,---,0.00,VWS V13.01,2013-11-11 20:29:00,
2013-11-11 15:34:00,43.0,30.9,30.01,WSW,246,5.0,18.0,62,0.00,,---,0.00,VWS V13.01,2013-11-11 20:34:00,
2013-11-11 15:40:00,43.0,30.9,30.00,SW,234,6.0,21.0,62,0.00,,---,0.00,VWS V13.01,2013-11-11 20:40:00,
2013-11-11 15:45:00,42.9,31.2,30.00,SW,214,19.0,21.0,63,0.00,,---,0.00,VWS V13.01,2013-11-11 20:45:00,
2013-11-11 15:50:00,42.8,31.5,30.00,West,267,8.0,21.0,64,0.00,,---,0.00,VWS V13.01,2013-11-11 20:50:00,
2013-11-11 15:55:00,42.7,31.8,30.01,West,263,9.0,21.0,65,0.00,,---,0.00,VWS V13.01,2013-11-11 20:55:00,
2013-11-11 16:00:00,42.3,32.1,30.01,West,259,12.0,20.0,67,0.00,,---,0.00,VWS V13.01,2013-11-11 21:00:00,
2013-11-11 16:05:00,41.7,33.0,30.02,West,273,10.0,20.0,71,0.00,,---,0.00,VWS V13.01,2013-11-11 21:05:00,
2013-11-11 16:10:00,41.3,33.3,30.02,West,275,13.0,20.0,73,0.00,,---,0.00,VWS V13.01,2013-11-11 21:10:00,
2013-11-11 16:15:00,41.1,33.5,30.02,West,261,8.0,20.0,74,0.00,,---,0.00,VWS V13.01,2013-11-11 21:15:00,
2013-11-11 16:20:00,41.0,33.4,30.02,WSW,241,11.0,20.0,74,0.00,,---,0.00,VWS V13.01,2013-11-11 21:20:00,
2013-11-11 16:26:00,40.8,33.8,30.02,West,261,10.0,20.0,76,0.00,,---,0.00,VWS V13.01,2013-11-11 21:26:00,
2013-11-11 16:31:00,40.8,33.2,30.02,WSW,247,8.0,14.0,74,0.00,,---,0.00,VWS V13.01,2013-11-11 21:31:00,
2013-11-11 16:36:00,40.9,33.3,30.02,SW,232,15.0,22.0,74,0.00,,---,0.00,VWS V13.01,2013-11-11 21:36:00,
2013-11-11 16:41:00,40.6,34.0,30.02,WSW,258,13.0,22.0,77,0.00,,---,0.00,VWS V13.01,2013-11-11 21:41:00,
2013-11-11 16:46:00,40.5,33.5,30.02,SW,222,13.0,23.0,76,0.00,,---,0.00,VWS V13.01,2013-11-11 21:46:00,
2013-11-11 16:51:00,40.3,34.0,30.02,WSW,252,11.0,23.0,78,0.00,,---,0.00,VWS V13.01,2013-11-11 21:51:00,
2013-11-11 16:56:00,40.0,33.7,30.02,WSW,245,10.0,23.0,78,0.00,,---,0.00,VWS V13.01,2013-11-11 21:56:00,
2013-11-11 17:01:00,39.8,34.1,30.02,WSW,252,10.0,25.0,80,0.00,,---,0.01,VWS V13.01,2013-11-11 22:01:00,
2013-11-11 17:06:00,39.7,34.4,30.02,SW,223,9.0,25.0,81,0.01,,---,0.01,VWS V13.01,2013-11-11 22:06:00,
2013-11-11 17:12:00,39.5,34.2,30.02,WSW,238,8.0,25.0,81,0.01,,---,0.01,VWS V13.01,2013-11-11 22:12:00,
2013-11-11 17:17:00,39.4,34.4,30.02,SW,229,3.0,25.0,82,0.01,,---,0.01,VWS V13.01,2013-11-11 22:17:00,
2013-11-11 17:22:00,39.2,34.2,30.01,SW,233,11.0,25.0,82,0.01,,---,0.01,VWS V13.01,2013-11-11 22:22:00,
2013-11-11 17:27:00,39.0,34.3,30.02,WSW,251,12.0,25.0,83,0.01,,---,0.01,VWS V13.01,2013-11-11 22:27:00,
2013-11-11 17:32:00,38.9,34.5,30.02,SW,223,9.0,16.0,84,0.01,,---,0.01,VWS V13.01,2013-11-11 22:32:00,
2013-11-11 17:37:00,38.7,34.6,30.02,WSW,250,11.0,16.0,85,0.01,,---,0.01,VWS V13.01,2013-11-11 22:37:00,
2013-11-11 17:42:00,38.6,34.8,30.02,WSW,252,8.0,16.0,86,0.01,,---,0.01,VWS V13.01,2013-11-11 22:42:00,
2013-11-11 17:48:00,38.3,34.8,30.02,SW,233,10.0,16.0,87,0.01,,---,0.01,VWS V13.01,2013-11-11 22:48:00,
2013-11-11 17:53:00,38.2,35.0,30.02,WSW,238,6.0,16.0,88,0.01,,---,0.01,VWS V13.01,2013-11-11 22:53:00,
2013-11-11 17:58:00,38.1,34.9,30.02,SW,218,8.0,16.0,88,0.01,,---,0.01,VWS V13.01,2013-11-11 22:58:00,
2013-11-11 18:03:00,37.9,35.0,30.02,WSW,245,6.0,11.0,89,0.02,,---,0.02,VWS V13.01,2013-11-11 23:03:00,
2013-11-11 18:08:00,37.7,34.8,30.03,SW,230,7.0,11.0,89,0.02,,---,0.02,VWS V13.01,2013-11-11 23:08:00,
2013-11-11 18:13:00,37.6,34.9,30.03,WSW,238,4.0,11.0,90,0.02,,---,0.02,VWS V13.01,2013-11-11 23:13:00,
2013-11-11 18:18:00,37.5,34.8,30.03,SW,230,9.0,11.0,90,0.02,,---,0.02,VWS V13.01,2013-11-11 23:18:00,
2013-11-11 18:23:00,37.5,35.1,30.03,WSW,252,6.0,11.0,91,0.03,,---,0.03,VWS V13.01,2013-11-11 23:23:00,
2013-11-11 18:28:00,37.4,35.0,30.03,WSW,244,5.0,12.0,91,0.03,,---,0.03,VWS V13.01,2013-11-11 23:28:00,
2013-11-11 18:33:00,37.3,34.9,30.03,WSW,245,7.0,7.0,91,0.02,,---,0.03,VWS V13.01,2013-11-11 23:33:00,
2013-11-11 18:38:00,37.2,35.1,30.03,WSW,245,4.0,8.0,92,0.02,,---,0.03,VWS V13.01,2013-11-11 23:38:00,
2013-11-11 18:43:00,37.1,35.0,30.04,WSW,246,4.0,8.0,92,0.02,,---,0.04,VWS V13.01,2013-11-11 23:43:00,
2013-11-11 18:49:00,37.1,35.3,30.04,WSW,247,5.0,8.0,93,0.03,,---,0.04,VWS V13.01,2013-11-11 23:49:00,
2013-11-11 18:54:00,37.0,35.2,30.04,West,277,2.0,10.0,93,0.03,,---,0.04,VWS V13.01,2013-11-11 23:54:00,
2013-11-11 18:59:00,36.9,35.1,30.04,West,262,6.0,11.0,93,0.04,,---,0.05,VWS V13.01,2013-11-11 23:59:00,
2013-11-11 19:04:00,36.8,35.0,30.04,West,261,5.0,11.0,93,0.04,,---,0.05,VWS V13.01,2013-11-12 00:04:00,
2013-11-11 19:09:00,36.7,34.9,30.04,West,261,9.0,13.0,93,0.04,,---,0.05,VWS V13.01,2013-11-12 00:09:00,
2013-11-11 19:14:00,36.5,34.7,30.04,WSW,254,7.0,13.0,93,0.05,,---,0.06,VWS V13.01,2013-11-12 00:14:00,
2013-11-11 19:19:00,36.4,34.6,30.04,West,272,6.0,13.0,93,0.05,,---,0.06,VWS V13.01,2013-11-12 00:19:00,
2013-11-11 19:24:00,36.2,34.4,30.04,West,274,7.0,13.0,93,0.05,,---,0.06,VWS V13.01,2013-11-12 00:24:00,
2013-11-11 19:29:00,36.1,34.3,30.04,West,271,6.0,13.0,93,0.06,,---,0.07,VWS V13.01,2013-11-12 00:29:00,
2013-11-11 19:34:00,36.0,34.4,30.04,West,271,0.0,8.0,94,0.04,,---,0.07,VWS V13.01,2013-11-12 00:34:00,
2013-11-11 19:39:00,35.9,34.3,30.04,West,271,2.0,8.0,94,0.04,,---,0.07,VWS V13.01,2013-11-12 00:39:00,
2013-11-11 19:44:00,35.7,34.2,30.04,West,271,2.0,8.0,94,0.05,,---,0.08,VWS V13.01,2013-11-12 00:44:00,
2013-11-11 19:50:00,35.5,34.0,30.05,West,271,0.0,8.0,94,0.05,,---,0.08,VWS V13.01,2013-11-12 00:50:00,
2013-11-11 19:55:00,35.3,33.5,30.05,West,276,0.0,8.0,93,0.06,,---,0.09,VWS V13.01,2013-11-12 00:55:00,
2013-11-11 20:00:00,35.0,33.2,30.06,West,276,0.0,8.0,93,0.07,,---,0.10,VWS V13.01,2013-11-12 01:00:00,
2013-11-11 20:05:00,34.7,33.2,30.06,West,276,4.0,5.0,94,0.05,,---,0.10,VWS V13.01,2013-11-12 01:05:00,
2013-11-11 20:10:00,34.4,32.6,30.06,West,273,5.0,10.0,93,0.06,,---,0.11,VWS V13.01,2013-11-12 01:10:00,
2013-11-11 20:15:00,34.3,32.8,30.07,West,275,4.0,10.0,94,0.06,,---,0.11,VWS V13.01,2013-11-12 01:15:00,
2013-11-11 20:20:00,34.1,32.3,30.07,West,277,4.0,10.0,93,0.06,,---,0.11,VWS V13.01,2013-11-12 01:20:00,
2013-11-11 20:25:00,33.9,32.1,30.07,West,277,0.0,10.0,93,0.06,,---,0.11,VWS V13.01,2013-11-12 01:25:00,
2013-11-11 20:30:00,33.8,32.0,30.07,West,277,4.0,7.0,93,0.07,,---,0.12,VWS V13.01,2013-11-12 01:30:00,
2013-11-11 20:35:00,33.6,31.8,30.08,West,277,2.0,7.0,93,0.05,,---,0.12,VWS V13.01,2013-11-12 01:35:00,
2013-11-11 20:40:00,33.2,31.4,30.08,West,273,3.0,9.0,93,0.05,,---,0.12,VWS V13.01,2013-11-12 01:40:00,
2013-11-11 20:46:00,33.0,31.5,30.08,West,273,2.0,9.0,94,0.05,,---,0.12,VWS V13.01,2013-11-12 01:46:00,
2013-11-11 20:51:00,32.8,31.0,30.09,West,273,5.0,9.0,93,0.06,,---,0.13,VWS V13.01,2013-11-12 01:51:00,
2013-11-11 20:56:00,32.6,31.1,30.08,WSW,238,4.0,12.0,94,0.06,,---,0.13,VWS V13.01,2013-11-12 01:56:00,
2013-11-11 21:01:00,32.6,31.1,30.09,WSW,239,2.0,7.0,94,0.03,,---,0.13,VWS V13.01,2013-11-12 02:01:00,
2013-11-11 21:06:00,32.5,31.0,30.09,WSW,239,5.0,8.0,94,0.03,,---,0.13,VWS V13.01,2013-11-12 02:06:00,
2013-11-11 21:11:00,32.5,31.0,30.10,WSW,240,5.0,8.0,94,0.03,,---,0.13,VWS V13.01,2013-11-12 02:11:00,
2013-11-11 21:16:00,32.2,30.7,30.10,West,261,5.0,8.0,94,0.03,,---,0.13,VWS V13.01,2013-11-12 02:16:00,
2013-11-11 21:21:00,31.9,30.4,30.10,West,273,5.0,10.0,94,0.03,,---,0.13,VWS V13.01,2013-11-12 02:21:00,
2013-11-11 21:26:00,31.7,30.2,30.10,West,268,0.0,10.0,94,0.03,,---,0.13,VWS V13.01,2013-11-12 02:26:00,
2013-11-11 21:31:00,31.7,30.2,30.10,West,269,5.0,7.0,94,0.01,,---,0.13,VWS V13.01,2013-11-12 02:31:00,
2013-11-11 21:37:00,31.4,30.1,30.11,West,272,7.0,9.0,95,0.01,,---,0.13,VWS V13.01,2013-11-12 02:37:00,
2013-11-11 21:42:00,31.2,29.9,30.11,West,274,6.0,10.0,95,0.01,,---,0.13,VWS V13.01,2013-11-12 02:42:00,
2013-11-11 21:47:00,31.0,29.7,30.12,West,274,4.0,10.0,95,0.01,,---,0.13,VWS V13.01,2013-11-12 02:47:00,
2013-11-11 21:52:00,30.9,29.6,30.12,West,274,5.0,10.0,95,0.01,,---,0.13,VWS V13.01,2013-11-12 02:52:00,
2013-11-11 21:57:00,30.8,29.5,30.12,WNW,290,5.0,10.0,95,0.01,,---,0.13,VWS V13.01,2013-11-12 02:57:00,
2013-11-11 22:02:00,30.6,29.3,30.12,WNW,291,0.0,8.0,95,0.00,,---,0.13,VWS V13.01,2013-11-12 03:02:00,
2013-11-11 22:07:00,30.5,29.2,30.13,NW,306,5.0,9.0,95,0.00,,---,0.13,VWS V13.01,2013-11-12 03:07:00,
2013-11-11 22:12:00,30.3,29.0,30.13,WNW,294,4.0,10.0,95,0.00,,---,0.13,VWS V13.01,2013-11-12 03:12:00,
2013-11-11 22:17:00,30.2,28.9,30.13,WNW,286,7.0,10.0,95,0.00,,---,0.13,VWS V13.01,2013-11-12 03:17:00,
2013-11-11 22:22:00,30.2,28.9,30.13,WNW,286,5.0,10.0,95,0.00,,---,0.13,VWS V13.01,2013-11-12 03:22:00,
2013-11-11 22:28:00,30.2,28.9,30.13,West,275,10.0,10.0,95,0.00,,---,0.13,VWS V13.01,2013-11-12 03:28:00,
2013-11-11 22:33:00,30.0,28.7,30.13,West,272,5.0,8.0,95,0.00,,---,0.13,VWS V13.01,2013-11-12 03:33:00,
2013-11-11 22:38:00,29.9,28.6,30.14,West,275,8.0,9.0,95,0.00,,---,0.13,VWS V13.01,2013-11-12 03:38:00,
2013-11-11 22:43:00,29.7,28.5,30.13,West,275,3.0,9.0,95,0.00,,---,0.13,VWS V13.01,2013-11-12 03:43:00,
2013-11-11 22:48:00,29.7,28.7,30.14,West,275,4.0,9.0,96,0.00,,---,0.13,VWS V13.01,2013-11-12 03:48:00,
2013-11-11 22:53:00,29.6,28.6,30.14,WSW,254,6.0,10.0,96,0.00,,---,0.13,VWS V13.01,2013-11-12 03:53:00,
2013-11-11 22:58:00,29.5,28.2,30.15,West,268,1.0,10.0,95,0.00,,---,0.13,VWS V13.01,2013-11-12 03:58:00,
2013-11-11 23:03:00,29.4,28.1,30.15,West,275,0.0,8.0,95,0.00,,---,0.13,VWS V13.01,2013-11-12 04:03:00,
2013-11-11 23:09:00,29.3,28.3,30.15,West,275,5.0,8.0,96,0.00,,---,0.13,VWS V13.01,2013-11-12 04:09:00,
2013-11-11 23:14:00,29.3,28.3,30.16,West,275,0.0,8.0,96,0.00,,---,0.13,VWS V13.01,2013-11-12 04:14:00,
2013-11-11 23:19:00,29.2,28.2,30.16,West,277,1.0,8.0,96,0.00,,---,0.13,VWS V13.01,2013-11-12 04:19:00,
2013-11-11 23:24:00,29.2,28.2,30.16,West,277,0.0,8.0,96,0.00,,---,0.13,VWS V13.01,2013-11-12 04:24:00,
2013-11-11 23:29:00,29.2,28.2,30.16,West,277,0.0,8.0,96,0.00,,---,0.13,VWS V13.01,2013-11-12 04:29:00,
2013-11-11 23:34:00,29.0,28.0,30.16,West,280,0.0,5.0,96,0.00,,---,0.13,VWS V13.01,2013-11-12 04:34:00,
2013-11-11 23:40:00,28.8,27.5,30.16,West,281,0.0,5.0,95,0.00,,---,0.13,VWS V13.01,2013-11-12 04:40:00,
2013-11-11 23:45:00,28.6,27.4,30.17,West,281,0.0,5.0,95,0.00,,---,0.13,VWS V13.01,2013-11-12 04:45:00,
2013-11-11 23:50:00,28.5,27.5,30.17,West,281,0.0,5.0,96,0.00,,---,0.13,VWS V13.01,2013-11-12 04:50:00,
2013-11-11 23:55:00,28.5,27.5,30.17,West,281,0.0,5.0,96,0.00,,---,0.13,VWS V13.01,2013-11-12 04:55:00,